Tiempo atmosférico en la estación meteorológica de Llanes, Asturias (10 m.)



Fecha
DESCASC
Temp. máxima en grados centígrados (hora)
DESCASC
Temp. mínima en grados centígrados (hora)
DESCASC
Temp. media en grados centígrados
DESCASC
Racha de viento máxima en m/sg (hora)
DESCASC
Velocidad máxima media en intervalos de 10 minutos(hora)
DESCASC
Precipitaciones diarias en mm
DESCASC
Precipitaciones de 00:00 a 06:00 en mm
DESCASC
Precipitaciones de 06:00 a 12:00 en mm
DESCASC
Precipitaciones de 12:00 a 18:00 en mm
DESCASC
Precipitaciones de 18:00 a 24:00 en mm
DESCASC
14-12-2019 16.7 (14:50) 11.1 (05:30) 13.9 8.06 (00:50) 3.61 (14:10) 0 0 0 0 0
13-12-2019 19.6 (13:20) 13.8 (23:50) 16.7 23.61 (05:50) 10.83 (05:50) 0.6 0.4 0.2 0 0
12-12-2019 15.3 (20:40) 11.5 (09:50) 13.4 21.11 (14:50) 8.33 (16:50) 12 0.2 0.2 4.4 7.2
11-12-2019 14.3 (15:00) 9.6 (00:00) 12 19.72 (16:30) 9.44 (17:20) 11 7 4 0 0
10-12-2019 13.8 (14:20) 6.8 (00:00) 10.3 6.11 (03:50) 3.61 (08:00) 0 0 0 0 0
09-12-2019 15.2 (12:40) 9.4 (00:00) 12.3 17.78 (11:20) 7.78 (13:40) 0 0 0 0 0
08-12-2019 15 (14:10) 9.7 (00:00) 12.3 14.72 (14:40) 7.78 (14:40) 3.6 0 2.2 1.4 0
07-12-2019 16.5 (14:50) 7.8 (00:00) 12.2 5 (05:30) 3.61 (07:20) 0 0 0 0 0
06-12-2019 12.9 (13:30) 7.6 (00:00) 10.2 6.94 (08:50) 3.61 (08:30) 0 0 0 0 0
05-12-2019 13.6 (14:00) 9.2 (00:00) 11.4 8.89 (21:30) 5.28 (21:00) 12.4 8.6 3.8 0 0
04-12-2019 12.8 (14:30) 4.1 (00:00) 8.5 6.39 (13:30) 3.89 (13:30) 0 0 0 0 0
03-12-2019 11.6 (11:40) 6 (00:00) 8.8 9.17 (05:10) 6.39 (05:20) 0 0 0 0 0
02-12-2019 12.3 (08:20) 8.6 (00:00) 10.5 -- (--) -- (--) 23.4 8.8 14.4 0 0.2
01-12-2019 14.8 (12:50) 8.4 (00:00) 11.6 12.22 (18:20) 5.56 (18:00) 19 0 0 17.6 1.4
30-11-2019 14 (15:30) 8.8 (00:00) 11.4 11.39 (08:40) 4.44 (06:30) 8.2 0 7 1.2 0
29-11-2019 18.2 (14:50) 10.5 (00:00) 14.4 8.06 (01:00) 4.44 (00:50) 0.2 0.2 0 0 0
28-11-2019 14.6 (13:40) 11.3 (00:00) 13 6.67 (01:40) 3.06 (17:20) 11 0 0.2 7.2 3.6
27-11-2019 15.4 (14:00) 10.2 (00:00) 12.8 10 (16:20) 4.72 (16:20) 2 0 0 0.2 1.8
26-11-2019 20.5 (18:30) 10.2 (00:00) 15.3 -- (--) -- (--) 1.2 0 0 0 1.2
25-11-2019 17 (13:10) 10.7 (00:00) 13.8 6.39 (08:30) 3.61 (04:00) 0 0 0 0 0
24-11-2019 15.4 (14:40) 10.7 (00:00) 13 -- (--) -- (--) 0.8 0.2 0 0 0.6
23-11-2019 13.4 (11:50) 10.3 (00:00) 11.8 -- (--) -- (--) 31.6 17.4 2.4 6.8 5
22-11-2019 16.4 (13:40) 7.9 (00:00) 12.1 -- (--) -- (--) 1.6 0 1 0.4 0.2
21-11-2019 16.6 (15:00) 8.2 (00:00) 12.4 5 (03:50) 3.61 (04:20) 0.2 0 0.2 0 0
20-11-2019 13.1 (15:50) 8.4 (00:00) 10.8 6.94 (23:00) 3.89 (23:00) 0 0 0 0 0
19-11-2019 13.7 (14:30) 6.1 (00:00) 9.9 5.28 (11:40) 3.61 (04:50) 0 0 0 0 0
18-11-2019 12.3 (12:40) 8.9 (00:00) 10.6 12.78 (06:40) 4.72 (06:40) 11.8 6.8 4.8 0.2 0
17-11-2019 14 (12:00) 9.1 (00:00) 11.6 -- (--) -- (--) 21 0 3.4 1.8 15.8
16-11-2019 11.9 (12:40) 7.2 (00:00) 9.5 -- (--) -- (--) 3.2 0.6 0.8 1.6 0.2

Gráficas

Temp. máximas Temp. mínimas Temp. medias Precipitaciones Rachas de viento máximas Velocidades máximas media en intervalos de 10 minutos

Datos horarios

Fecha y hora oficial Temperatura (ºC) Velocidad del viento (km/h) Dirección del viento Racha (km/h) Dirección de racha Precipitación (mm) Presión (hPa) Tendencia (hPa) Humedad (%)
2019-12-15 23:00:00 11.7 7 Sudeste 18 Sudeste 0 1004 -1.8 87
2019-12-15 22:00:00 11.6 9 Sudeste 13 Este 0 1004.8 -0.9 86
2019-12-15 21:00:00 11.4 3 Sur 9 Sur 0.2 1005.5 -0.4 87
2019-12-15 20:00:00 11.2 5 Sudoeste 16 Sudoeste 0.2 1005.8 -0.3 88
2019-12-15 19:00:00 11.2 6 Sur 13 Sudeste 0 1005.7 -0.6 87
2019-12-15 18:00:00 11.2 6 Sur 17 Sudeste 0.2 1005.9 -0.6 87
2019-12-15 17:00:00 11.3 6 Sudoeste 13 Este 0 1006.1 -1.4 87
2019-12-15 16:00:00 11.5 6 Sur 10 Sur 0 1006.3 -1.3 87
2019-12-15 15:00:00 11.4 3 Noroeste 18 Oeste 0.2 1006.5 -0.6 88
2019-12-15 14:00:00 11.8 10 Noroeste 35 Noroeste 1.2 1007.5 -0.1 87
2019-12-15 13:00:00 12.8 16 Noroeste 44 Noroeste 0 1007.6 0.1 82
2019-12-15 12:00:00 13.9 4 Sur 21 Este 0 1007.1 -0.3 86
2019-12-15 11:00:00 13.2 5 Este 9 Sudeste 0.2 1007.6 0.5 86
2019-12-15 10:00:00 12.6 5 Sudoeste 10 Sudoeste 0.2 1007.5 0.3 87
2019-12-15 09:00:00 12.7 4 Sudoeste 8 Sudoeste 0.6 1007.4 0.1 86
2019-12-15 08:00:00 12.9 3 Sudoeste 9 Sudoeste 1 1007.1 -0.5 85
2019-12-15 07:00:00 13.2 5 Oeste 18 Sudoeste 0.2 1007.2 -0.3 83
2019-12-15 06:00:00 13.5 5 Sudoeste 15 Sudoeste 0 1007.3 1.6 81
2019-12-15 05:00:00 13.9 13 Noroeste 28 Oeste 0 1007.6 1.9 79
2019-12-15 04:00:00 14.3 20 Noroeste 41 Norte 0 1007.5 1.6 75
2019-12-15 03:00:00 12.7 6 Oeste 21 Sudoeste 0 1005.7 -0.3 57
2019-12-15 02:00:00 13.1 4 Sudoeste 16 Sudoeste 0 1005.7 -0.7 56
2019-12-15 01:00:00 13 6 Sudoeste 15 Sudoeste 0 1005.9 -0.8 58
2019-12-15 00:00:00 12.6 3 Sur 18 Oeste 0 1006 -1.2 65
2019-12-14 23:00:00 11.7 7 Oeste 22 Sudoeste 0 1006.4 -1.2 65
2019-12-14 22:00:00 11.9 4 Sudoeste 14 Oeste 0 1006.7 -1.2 66
2019-12-14 21:00:00 12.3 0 Calma 14 Sudoeste 0 1007.2 -1.5 63
2019-12-14 20:00:00 12.2 3 Sur 17 Sudoeste 0 1007.6 -1 69
2019-12-14 19:00:00 13.2 5 Sudoeste 11 Sudoeste 0 1007.9 -0.9 67
2019-12-14 18:00:00 13.9 5 Sudoeste 10 Sudoeste 0 1008.7 0 71
2019-12-14 17:00:00 14.5 6 Sudoeste 11 Sudoeste 0 1008.6 -1 68
2019-12-14 16:00:00 15.1 5 Noroeste 9 Oeste 0 1008.8 -2 65
2019-12-14 15:00:00 16.4 2 Sur 28 Este 0 1008.7 -2.9 62
2019-12-14 14:00:00 16.5 10 Este 17 Sudeste 0 1009.6 -1.6 59
2019-12-14 13:00:00 15.6 4 Norte 13 Sudoeste 0 1010.8 -0.6 63
2019-12-14 12:00:00 14.5 10 Sudoeste 16 Oeste 0 1011.6 0.7 62
2019-12-14 11:00:00 14.3 3 Sur 10 Oeste 0 1011.2 0.3 64
2019-12-14 10:00:00 13.2 2 Nordeste 8 Sudeste 0 1011.4 0.4 70
2019-12-14 09:00:00 13.7 4 Este 11 Este 0 1010.9 0 66
2019-12-14 08:00:00 13.1 4 Sudeste 13 Sudeste 0 1010.9 0.1 66
2019-12-14 07:00:00 12.1 4 Sudeste 10 Sudoeste 0 1011 0 73
2019-12-14 06:00:00 11.3 3 Sudoeste 12 Sudoeste 0 1010.9 0.4 69
2019-12-14 05:00:00 11.7 8 Sudoeste 17 Sudoeste 0 1010.8 0.4 65
2019-12-14 04:00:00 12.5 3 Sur 14 Sudeste 0 1011 0.5 67
2019-12-14 03:00:00 13.4 6 Sur 12 Oeste 0 1010.5 0 65
2019-12-14 02:00:00 14.7 5 Oeste 26 Oeste 0 1010.4 -0.3 57
2019-12-14 01:00:00 14.8 10 Oeste 29 Sudoeste 0 1010.5 -0.1 57
2019-12-14 00:00:00 14.2 10 Oeste 28 Noroeste 0 1010.5 -0.4 61
2019-12-13 23:00:00 14.4 16 Noroeste 48 Noroeste 0 1010.7 0.4 74
2019-12-13 22:00:00 14.7 15 Noroeste 46 Oeste 0 1010.6 0.7 69
2019-12-13 21:00:00 15.3 14 Oeste 46 Noroeste 0 1010.9 1.2 67
2019-12-13 20:00:00 15.5 23 Noroeste 45 Noroeste 0 1010.3 1.1 69
2019-12-13 19:00:00 15.1 23 Oeste 49 Noroeste 0 1009.9 1.6 76
2019-12-13 18:00:00 15.3 25 Noroeste 50 Oeste 0 1009.7 0.9 76
2019-12-13 17:00:00 15.5 29 Noroeste 69 Noroeste 0 1009.2 0.3 77
2019-12-13 16:00:00 15.7 32 Noroeste 68 Noroeste 0 1008.3 -1 77
2019-12-13 15:00:00 16.4 32 Noroeste 60 Noroeste 0 1008.8 -1.1 74
2019-12-13 14:00:00 16.6 28 Noroeste 57 Noroeste 0 1008.9 -1.4 71
2019-12-13 13:00:00 19.3 31 Oeste 73 Oeste 0 1009.3 0.2 54
2019-12-13 12:00:00 18.3 27 Oeste 70 Oeste 0 1009.9 1.6 58
2019-12-13 11:00:00 17.3 22 Oeste 62 Noroeste 0 1010.3 2.7 64
2019-12-13 10:00:00 17.3 33 Oeste 73 Oeste 0 1009.1 2.6 64
2019-12-13 09:00:00 16.5 27 Oeste 74 Noroeste 0 1008.3 3.5 69
2019-12-13 08:00:00 15.5 20 Noroeste 45 Oeste 0.2 1007.6 2.7 76
2019-12-13 07:00:00 15.3 25 Noroeste 69 Oeste 0 1006.5 1.9 77
2019-12-13 06:00:00 17.6 35 Oeste 85 Oeste 0 1004.8 0.7 61
2019-12-13 05:00:00 16.4 25 Oeste 70 Noroeste 0.2 1004.9 0.8 71
2019-12-13 04:00:00 15.9 34 Noroeste 68 Oeste 0 1004.6 -0.7 75
2019-12-13 03:00:00 17.5 31 Oeste 82 Oeste 0 1004.1 -1.2 64
2019-12-13 02:00:00 16.6 33 Oeste 68 Oeste 0.2 1004.1 -0.6 71
2019-12-13 01:00:00 15.6 26 Oeste 57 Oeste 0 1005.3 0.6 78
2019-12-13 00:00:00 14.6 20 Oeste 48 Noroeste 0.6 1005.3 0.5 85
2019-12-12 23:00:00 14.9 25 Oeste 51 Noroeste 1.4 1004.7 -0.4 83
2019-12-12 22:00:00 14.7 23 Oeste 49 Oeste 2.2 1004.7 -1 83
2019-12-12 21:00:00 14.9 24 Noroeste 52 Oeste 0.8 1004.8 -0.4 80
2019-12-12 20:00:00 14.7 23 Oeste 46 Oeste 0.8 1005.1 0.5 81
2019-12-12 19:00:00 14.1 25 Oeste 58 Oeste 1.4 1005.7 1.5 84
2019-12-12 18:00:00 14.1 25 Oeste 55 Noroeste 1.4 1005.2 1.4 81
2019-12-12 17:00:00 14.4 25 Oeste 65 Oeste 1.4 1004.6 0.3 77
2019-12-12 16:00:00 14.5 25 Oeste 64 Oeste 0.6 1004.2 -1 72
2019-12-12 15:00:00 14.6 23 Oeste 76 Oeste 0.4 1003.8 -3.8 68
2019-12-12 14:00:00 14.1 23 Oeste 74 Oeste 0.4 1004.3 -5.2 66
2019-12-12 13:00:00 14.1 26 Oeste 68 Sudoeste 0.2 1005.2 -6 60
2019-12-12 12:00:00 13.8 18 Oeste 49 Oeste 0 1007.6 -5.1 58
2019-12-12 11:00:00 12.6 13 Noroeste 37 Sudoeste 0 1009.5 -3.4 66
2019-12-12 10:00:00 11.5 12 Noroeste 31 Noroeste 0.2 1011.2 -1.8 71
2019-12-12 09:00:00 11.9 9 Oeste 28 Oeste 0 1012.7 -1.5 67
2019-12-12 08:00:00 13.1 14 Noroeste 41 Oeste 0 1012.9 -2.5 59
2019-12-12 07:00:00 13.2 14 Oeste 31 Oeste 0 1013 -3.6 56
2019-12-12 06:00:00 13.1 13 Oeste 31 Oeste 0.2 1014.2 -3.2 57
2019-12-12 05:00:00 12.5 11 Oeste 35 Oeste 0 1015.4 -2.9 60
2019-12-12 04:00:00 12.9 17 Oeste 46 Oeste 0 1016.6 -2.4 58
2019-12-12 03:00:00 13.4 22 Oeste 45 Oeste 0 1017.4 -1.9 53
2019-12-12 02:00:00 13.3 20 Oeste 54 Oeste 0 1018.3 -1.3 52
2019-12-12 01:00:00 13.2 21 Oeste 53 Oeste 0 1019 -1.1 54
2019-12-12 00:00:00 13.3 27 Oeste 65 Oeste 0 1019.3 -1.2 52
2019-12-11 23:00:00 13.4 28 Oeste 68 Oeste 0 1019.6 -1.5 52
2019-12-11 22:00:00 13 26 Oeste 57 Noroeste 0 1020.1 -0.8 55
2019-12-11 21:00:00 12.9 24 Oeste 53 Oeste 0 1020.5 0.1 55
2019-12-11 20:00:00 12.8 21 Oeste 62 Oeste 0 1021.1 1.3 57
2019-12-11 19:00:00 13 22 Oeste 66 Oeste 0 1020.9 1.1 54
2019-12-11 18:00:00 13.3 25 Oeste 68 Noroeste 0 1020.4 0.4 50
2019-12-11 17:00:00 13.7 30 Oeste 71 Oeste 0 1019.8 -1.3 45
2019-12-11 16:00:00 13.9 26 Oeste 56 Noroeste 0 1019.8 -2.2 42
2019-12-11 15:00:00 14.3 26 Oeste 55 Oeste 0 1020 -2.6 37
2019-12-11 14:00:00 13.5 27 Oeste 54 Oeste 0 1021.1 -1.7 40
2019-12-11 13:00:00 12.8 21 Oeste 55 Oeste 0 1022 -0.5 48
2019-12-11 12:00:00 12.1 22 Oeste 54 Oeste 0 1022.6 0.3 56
2019-12-11 11:00:00 11.4 21 Oeste 42 Oeste 0 1022.8 0.6 64
2019-12-11 10:00:00 10.3 17 Oeste 38 Oeste 0 1022.5 0.6 71
2019-12-11 09:00:00 9.6 13 Oeste 52 Oeste 0.4 1022.3 1.6 79
2019-12-11 08:00:00 9.7 16 Oeste 39 Oeste 0.4 1022.2 1.7 84
2019-12-11 07:00:00 10 23 Oeste 48 Noroeste 3.2 1021.9 3.2 85
2019-12-11 06:00:00 10.6 12 Oeste 34 Noroeste 3.6 1020.7 2.5 86
2019-12-11 05:00:00 11.1 24 Oeste 54 Oeste 3.4 1020.5 3.5 84
2019-12-11 04:00:00 13.2 13 Oeste 27 Oeste 0 1018.7 1 75
2019-12-11 03:00:00 12 11 Oeste 21 Oeste 0 1018.2 -0.2 59
2019-12-11 02:00:00 11.3 3 Sudoeste 11 Sudoeste 0 1017 -1.5 61
2019-12-11 01:00:00 11.9 3 Oeste 14 Sudoeste 0 1017.7 -1.4 58
2019-12-11 00:00:00 11.3 9 Oeste 17 Sudoeste 0 1018.4 -1.4 55
2019-12-10 23:00:00 11.4 6 Sudoeste 14 Norte 0 1018.5 -1.6 55
2019-12-10 22:00:00 10.8 5 Sur 12 Oeste 0 1019.1 -1.7 64
2019-12-10 21:00:00 11 5 Oeste 10 Sudoeste 0 1019.8 -1.4 69
2019-12-10 20:00:00 11.6 2 Oeste 10 Sudoeste 0 1020.1 -1.2 76
2019-12-10 19:00:00 12.5 5 Sudoeste 10 Sudoeste 0 1020.8 -0.4 76
2019-12-10 18:00:00 12.7 5 Oeste 19 Oeste 0 1021.2 -0.4 75
2019-12-10 17:00:00 12.9 7 Oeste 12 Este 0 1021.3 -1.4 75
2019-12-10 16:00:00 13.3 5 Noroeste 16 Nordeste 0 1021.2 -2.8 72
2019-12-10 15:00:00 13.5 5 Este 8 Este 0 1021.6 -3.8 71
2019-12-10 14:00:00 13.6 3 Este 13 Este 0 1022.7 -3.5 71
2019-12-10 13:00:00 13 8 Este 13 Este 0 1024 -2.1 71
2019-12-10 12:00:00 12.1 3 Oeste 10 Sudoeste 0 1025.4 -1.2 70
2019-12-10 11:00:00 10.7 6 Sudoeste 20 Sudoeste 0 1026.2 -0.5 71
2019-12-10 10:00:00 8.4 6 Oeste 11 Sudoeste 0 1026.1 -1 77
2019-12-10 09:00:00 7.1 8 Sudoeste 19 Sudoeste 0 1026.6 -1.1 78
2019-12-10 08:00:00 6.8 13 Sudoeste 17 Sudoeste 0 1026.7 -1.4 80
2019-12-10 07:00:00 7.4 12 Sudoeste 16 Sudoeste 0 1027.1 -2.1 81
2019-12-10 06:00:00 7.1 5 Sudoeste 13 Sudoeste 0 1027.7 -1.9 82
2019-12-10 05:00:00 7.7 6 Oeste 17 Oeste 0 1028.1 -2.3 81
2019-12-10 04:00:00 7.9 10 Oeste 22 Sudoeste 0 1029.2 -1.8 82
2019-12-10 03:00:00 8.4 2 Sudoeste 7 Sudoeste 0 1029.6 -1.7 80
2019-12-10 02:00:00 9.3 2 Sur 12 Sudoeste 0 1030.4 -0.8 79
2019-12-10 01:00:00 10.4 8 Sudoeste 12 Sudoeste 0 1031 -0.4 78
2019-12-10 00:00:00 10.5 6 Sudoeste 16 Sudoeste 0 1031.3 -0.4 78
2019-12-09 23:00:00 10.1 2 Sudoeste 13 Sudoeste 0 1031.2 -0.1 74
2019-12-09 22:00:00 10.7 5 Sudoeste 10 Sudoeste 0 1031.4 0.2 72
2019-12-09 21:00:00 11.7 4 Oeste 13 Oeste 0 1031.7 0.8 69
2019-12-09 20:00:00 12.5 9 Oeste 19 Oeste 0 1031.3 0.8 69
2019-12-09 19:00:00 12.9 9 Oeste 17 Oeste 0 1031.2 1.1 71
2019-12-09 18:00:00 13 9 Oeste 31 Oeste 0 1030.9 1.2 70
2019-12-09 17:00:00 13.6 18 Oeste 39 Oeste 0 1030.5 0.9 68
2019-12-09 16:00:00 13.9 20 Noroeste 51 Noroeste 0 1030.1 0.6 68
2019-12-09 15:00:00 14.4 21 Noroeste 43 Oeste 0 1029.7 0.3 64
2019-12-09 14:00:00 14.5 26 Oeste 55 Noroeste 0 1029.6 0.9 55
2019-12-09 13:00:00 14.9 20 Noroeste 45 Oeste 0 1029.5 1.1 57
2019-12-09 12:00:00 14.9 20 Oeste 64 Noroeste 0 1029.4 1.5 53
2019-12-09 11:00:00 14.4 24 Oeste 50 Oeste 0 1028.7 0.8 55
2019-12-09 10:00:00 14 21 Oeste 49 Oeste 0 1028.4 1.5 56
2019-12-09 09:00:00 13.7 20 Oeste 49 Noroeste 0 1027.9 1.6 55
2019-12-09 08:00:00 13.5 22 Noroeste 51 Oeste 0 1027.9 1.8 54
2019-12-09 07:00:00 12.9 14 Oeste 39 Oeste 0 1026.9 0.7 54
2019-12-09 06:00:00 12.8 22 Oeste 54 Oeste 0 1026.3 1.3 56
2019-12-09 05:00:00 12 19 Oeste 43 Oeste 0 1026.1 1.4 59
2019-12-09 04:00:00 12.6 23 Oeste 49 Oeste 0 1026.2 1.6 64
2019-12-09 03:00:00 12.3 16 Oeste 36 Noroeste 0 1025 0.2 72
2019-12-09 02:00:00 12.1 17 Noroeste 35 Oeste 0 1024.7 0.3 68
2019-12-09 01:00:00 11.9 17 Noroeste 31 Oeste 0 1024.6 0.4 75
2019-12-09 00:00:00 11.1 9 Oeste 21 Oeste 0 1024.8 0.1 79
2019-12-08 23:00:00 11.7 5 Sudoeste 38 Noroeste 0 1024.4 0.1 77
2019-12-08 22:00:00 11.9 8 Noroeste 23 Oeste 0 1024.2 -0.5 78
2019-12-08 21:00:00 12.3 10 Oeste 31 Noroeste 0 1024.7 1 77
2019-12-08 20:00:00 13 14 Oeste 37 Oeste 0 1024.3 0.9 77
2019-12-08 19:00:00 13.2 19 Oeste 36 Oeste 0 1024.7 1.5 74
2019-12-08 18:00:00 12.9 14 Oeste 31 Oeste 0 1023.7 1.6 80
2019-12-08 17:00:00 13.1 16 Oeste 37 Noroeste 0 1023.4 2.7 83
2019-12-08 16:00:00 13 13 Oeste 44 Noroeste 0.4 1023.2 2.3 87
2019-12-08 15:00:00 13.3 22 Oeste 53 Noroeste 0.6 1022.1 1.1 88
2019-12-08 14:00:00 14.9 12 Noroeste 22 Noroeste 0.2 1020.7 0.1 85
2019-12-08 13:00:00 14.1 3 Sudeste 6 Sur 0.2 1020.9 0.6 85
2019-12-08 12:00:00 14 0 Calma 8 Sur 0.6 1021 2 84
2019-12-08 11:00:00 13.3 5 Sur 19 Sudoeste 0.8 1020.6 1.9 83
2019-12-08 10:00:00 12.5 8 Sudoeste 20 Oeste 0.8 1020.3 1.7 82
2019-12-08 09:00:00 12.8 4 Oeste 18 Sudoeste 0 1019 0.1 79
2019-12-08 08:00:00 12.4 9 Sudoeste 14 Sudoeste 0 1018.7 -0.4 79
2019-12-08 07:00:00 12.4 2 Sur 18 Sudoeste 0 1018.6 -1 79
2019-12-08 06:00:00 12.2 6 Sudoeste 18 Oeste 0 1018.9 -1 79
2019-12-08 05:00:00 11.7 6 Sudoeste 14 Sudoeste 0 1019.1 -1.3 81
2019-12-08 04:00:00 11.2 5 Oeste 16 Sudoeste 0 1019.6 -1.5 81
2019-12-08 03:00:00 10.8 9 Sudoeste 16 Sudoeste 0 1019.9 -1.4 82
2019-12-08 02:00:00 9.8 8 Sudoeste 14 Oeste 0 1020.4 -1.1 81
2019-12-08 01:00:00 10.1 9 Oeste 15 Sudoeste 0 1021.1 -0.8 82
2019-12-08 00:00:00 10.5 0 Calma 11 Oeste 0 1021.3 -0.7 81
2019-12-07 23:00:00 11.2 2 Sur 15 Sudoeste 0 1021.5 -0.4 79
2019-12-07 22:00:00 11.6 8 Oeste 11 Oeste 0 1021.9 0.5 79
2019-12-07 21:00:00 12.7 8 Sudoeste 12 Sudoeste 0 1022 0.7 77
2019-12-07 20:00:00 12.7 6 Oeste 14 Oeste 0 1021.9 1 77
2019-12-07 19:00:00 12.9 3 Noroeste 8 Sudoeste 0 1021.4 0.8 76
2019-12-07 18:00:00 13.4 4 Sudoeste 16 Sudoeste 0 1021.3 0.5 76
2019-12-07 17:00:00 14.4 8 Este 12 Sudeste 0 1020.9 -0.2 77
2019-12-07 16:00:00 15.1 4 Sudeste 9 Este 0 1020.6 -1.4 71
2019-12-07 15:00:00 15.8 6 Este 13 Este 0 1020.8 -1.7 68
2019-12-07 14:00:00 16 7 Sudeste 10 Sudeste 0 1021.1 -1.5 69
2019-12-07 13:00:00 14.4 6 Este 9 Este 0 1022 -0.5 76
2019-12-07 12:00:00 14.3 5 Nordeste 10 Sur 0 1022.5 0.6 77
2019-12-07 11:00:00 11.9 3 Noroeste 13 Sur 0 1022.6 0.8 81
2019-12-07 10:00:00 10.2 6 Oeste 10 Oeste 0 1022.5 1 81
2019-12-07 09:00:00 9.9 2 Oeste 10 Sudoeste 0 1021.9 0.9 79
2019-12-07 08:00:00 9.4 8 Sudoeste 17 Sudoeste 0 1021.8 0.8 79
2019-12-07 07:00:00 8.1 8 Sudoeste 18 Sudoeste 0 1021.5 0.4 83
2019-12-07 06:00:00 9 2 Sudoeste 18 Sudoeste 0 1021 -0.3 82
2019-12-07 05:00:00 8.5 6 Sudoeste 14 Sudoeste 0 1021 -0.6 84
2019-12-07 04:00:00 8.7 8 Sudoeste 12 Oeste 0 1021.1 -1 84
2019-12-07 03:00:00 8.8 3 Sudoeste 11 Sudoeste 0 1021.3 -1.2 83
2019-12-07 02:00:00 8.5 4 Sudoeste 13 Sudoeste 0 1021.6 -0.8 82
2019-12-07 01:00:00 9.6 5 Sudoeste 17 Sudoeste 0 1022.1 -0.2 78
2019-12-07 00:00:00 9.6 7 Sudoeste 21 Sudoeste 0 1022.5 1 80
2019-12-06 23:00:00 9.4 4 Sudoeste 19 Sudoeste 0 1022.4 1 81
2019-12-06 22:00:00 9.2 6 Oeste 14 Oeste 0 1022.3 1.5 81
2019-12-06 21:00:00 10.2 3 Sudoeste 13 Sudoeste 0 1021.5 0.7 78
2019-12-06 20:00:00 10.7 9 Sudoeste 12 Sudoeste 0 1021.4 0.8 79
2019-12-06 19:00:00 11.5 6 Sudoeste 12 Sudoeste 0 1020.8 0.4 78
2019-12-06 18:00:00 12.1 6 Oeste 12 Oeste 0 1020.8 0.2 76
2019-12-06 17:00:00 12.2 4 Sudoeste 9 Sudoeste 0 1020.6 -0.1 76
2019-12-06 16:00:00 12.3 5 Oeste 16 Sudoeste 0 1020.4 -0.8 75
2019-12-06 15:00:00 12.5 6 Oeste 12 Noroeste 0 1020.6 -1.7 77
2019-12-06 14:00:00 12.4 7 Noroeste 11 Noroeste 0 1020.7 -1.5 71
2019-12-06 13:00:00 12.2 4 Noroeste 13 Noroeste 0 1021.2 -0.8 76
2019-12-06 12:00:00 12 6 Oeste 11 Oeste 0 1022.3 0.9 78
2019-12-06 11:00:00 10.9 4 Sudoeste 14 Oeste 0 1022.2 1 83
2019-12-06 10:00:00 9 10 Sudoeste 14 Sudoeste 0 1022 0.8 84
2019-12-06 09:00:00 8.3 12 Sudoeste 25 Sudoeste 0 1021.4 -0.1 85
2019-12-06 08:00:00 7.7 11 Sudoeste 17 Sudoeste 0 1021.2 -0.7 85
2019-12-06 07:00:00 8.4 5 Sudoeste 15 Sudoeste 0 1021.2 -0.4 84
2019-12-06 06:00:00 8.4 8 Sudoeste 17 Sudoeste 0 1021.5 -0.5 83
2019-12-06 05:00:00 8.3 11 Sudoeste 15 Sudoeste 0 1021.9 -0.1 82
2019-12-06 04:00:00 8.6 9 Sudoeste 17 Sudoeste 0 1021.6 -0.9 81
2019-12-06 03:00:00 8.4 12 Sudoeste 18 Sudoeste 0 1022 -0.5 83
2019-12-06 02:00:00 8 12 Sudoeste 18 Sudoeste 0 1022 -0.3 84
2019-12-06 01:00:00 8 13 Sudoeste 18 Sudoeste 0 1022.5 0 83
2019-12-06 00:00:00 9.2 9 Sudoeste 17 Sudoeste 0 1022.5 0.5 82
2019-12-05 23:00:00 10.4 3 Sur 15 Sur 0 1022.3 -0.9 82
2019-12-05 22:00:00 11.2 8 Sudeste 32 Este 0 1022.5 -0.5 83
2019-12-05 21:00:00 11.8 19 Sudeste 30 Sudeste 0 1022 -0.7 82
2019-12-05 20:00:00 11.9 8 Sudeste 19 Sudeste 0 1023.2 0.5 82
2019-12-05 19:00:00 12.2 8 Sudeste 27 Este 0 1023 0.7 81
2019-12-05 18:00:00 12.9 18 Este 30 Este 0 1022.7 0.4 81
2019-12-05 17:00:00 12.9 7 Sudeste 24 Este 0 1022.7 0.2 80
2019-12-05 16:00:00 13 17 Este 22 Este 0 1022.3 -0.5 77
2019-12-05 15:00:00 13.2 12 Este 21 Este 0 1022.3 -0.8 77
2019-12-05 14:00:00 13.5 15 Este 21 Este 0 1022.5 -0.3 76
2019-12-05 13:00:00 13.1 11 Sudeste 20 Este 0 1022.8 0.5 77
2019-12-05 12:00:00 12.4 10 Este 16 Este 0 1023.1 1.1 80
2019-12-05 11:00:00 11.7 10 Este 22 Este 0.2 1022.8 1.3 85
2019-12-05 10:00:00 10.8 6 Sur 21 Este 0 1022.3 1.4 87
2019-12-05 09:00:00 10.6 8 Sudeste 23 Sudeste 0.8 1022 1.4 88
2019-12-05 08:00:00 10.3 3 Sur 8 Oeste 0.8 1021.5 1.1 88
2019-12-05 07:00:00 9.9 5 Sudoeste 11 Oeste 2 1020.9 0.6 88
2019-12-05 06:00:00 9.6 5 Oeste 12 Oeste 1 1020.6 0.5 88
2019-12-05 05:00:00 9.5 8 Oeste 11 Sudoeste 2 1020.4 0.8 87
2019-12-05 04:00:00 9.5 5 Oeste 10 Oeste 1.8 1020.3 0.8 87
2019-12-05 03:00:00 9.6 5 Oeste 13 Oeste 1.4 1020.1 1 86
2019-12-05 02:00:00 9.5 4 Sudoeste 18 Oeste 1.6 1019.6 1.3 85
2019-12-05 01:00:00 9.9 5 Oeste 17 Sudoeste 0.8 1019.5 1.7 82
2019-12-05 00:00:00 10.3 7 Oeste 17 Oeste 0 1019.1 1.5 75
2019-12-04 23:00:00 10.5 8 Oeste 18 Oeste 0 1018.3 1.5 71
2019-12-04 22:00:00 10.4 6 Oeste 18 Oeste 0 1017.8 1.4 76
2019-12-04 21:00:00 9.7 8 Sudoeste 13 Sudoeste 0 1017.6 2 73
2019-12-04 20:00:00 9.2 8 Sudoeste 23 Sudoeste 0 1016.8 1.5 74
2019-12-04 19:00:00 9 10 Sudoeste 13 Sudoeste 0 1016.4 2.1 72
2019-12-04 18:00:00 9.7 8 Sudoeste 12 Oeste 0 1015.6 1.6 69
2019-12-04 17:00:00 11.7 6 Oeste 18 Sudoeste 0 1015.3 1.1 66
2019-12-04 16:00:00 12 10 Noroeste 19 Noroeste 0 1014.3 0.3 65
2019-12-04 15:00:00 12.6 10 Noroeste 19 Oeste 0 1014 -0.2 64
2019-12-04 14:00:00 12.3 10 Noroeste 23 Noroeste 0 1014.2 -0.2 64
2019-12-04 13:00:00 11.7 11 Noroeste 18 Noroeste 0 1014 0.2 67
2019-12-04 12:00:00 11.2 9 Oeste 17 Oeste 0 1014.2 1.3 67
2019-12-04 11:00:00 10.3 7 Sudoeste 13 Sudoeste 0 1014.4 2 65
2019-12-04 10:00:00 7.6 9 Sudoeste 14 Oeste 0 1013.8 1.5 70
2019-12-04 09:00:00 5.4 10 Sudoeste 15 Sudoeste 0 1012.9 0.9 74
2019-12-04 08:00:00 5 10 Sudoeste 16 Sudoeste 0 1012.4 0.5 76
2019-12-04 07:00:00 4.2 13 Sudoeste 17 Sudoeste 0 1012.3 -0.2 78
2019-12-04 06:00:00 4.2 13 Sudoeste 18 Sudoeste 0 1012 -0.9 78
2019-12-04 05:00:00 5.1 12 Sudoeste 17 Sudoeste 0 1011.9 -1.5 76
2019-12-04 04:00:00 5.3 12 Sudoeste 17 Sudoeste 0 1012.5 -1.3 76
2019-12-04 03:00:00 4.6 10 Sudoeste 21 Sudoeste 0 1012.9 -1.7 79
2019-12-04 02:00:00 4.2 11 Sudoeste 17 Oeste 0 1013.4 -1.9 80
2019-12-04 01:00:00 5.1 11 Sudoeste 15 Sudoeste 0 1013.8 -1.9 78
2019-12-04 00:00:00 6 11 Sudoeste 24 Sudoeste 0 1014.6 -1.2 74
2019-12-03 23:00:00 7.5 6 Sur 21 Sudeste 0 1015.3 -0.7 69
2019-12-03 22:00:00 8.4 8 Sudeste 20 Sudeste 0 1015.7 -0.3 69
2019-12-03 21:00:00 8.4 10 Sur 17 Sur 0 1015.8 -0.6 70
2019-12-03 20:00:00 8.6 8 Sudeste 16 Sudeste 0 1016 -0.8 71
2019-12-03 19:00:00 8.7 8 Sur 15 Sur 0 1016 -1.2 70
2019-12-03 18:00:00 9 6 Sudeste 17 Este 0 1016.4 -1.4 70
2019-12-03 17:00:00 9.5 13 Este 21 Este 0 1016.8 -1.9 67
2019-12-03 16:00:00 10 13 Este 24 Este 0 1017.2 -2.6 65
2019-12-03 15:00:00 10.5 13 Este 24 Este 0 1017.8 -3 64
2019-12-03 14:00:00 10.4 14 Este 24 Este 0 1018.7 -2.6 64
2019-12-03 13:00:00 10.2 14 Este 25 Este 0 1019.8 -1.9 65
2019-12-03 12:00:00 11.1 16 Sudeste 25 Sudeste 0 1020.8 -1.1 61
2019-12-03 11:00:00 11.1 9 Sudeste 17 Sudeste 0 1021.3 -0.6 66
2019-12-03 10:00:00 8.4 9 Sur 14 Sur 0 1021.7 -0.5 72
2019-12-03 09:00:00 8.3 7 Sur 13 Sur 0 1021.9 -0.6 72
2019-12-03 08:00:00 8.7 8 Sudeste 16 Sudeste 0 1021.9 -1.2 71
2019-12-03 07:00:00 8.8 8 Sur 17 Sur 0 1022.2 -1.3 72
2019-12-03 06:00:00 9.3 10 Sur 33 Este 0 1022.5 -1.3 70
2019-12-03 05:00:00 10 22 Este 31 Este 0 1023.1 -0.7 70
2019-12-03 04:00:00 9.5 6 Sudeste 14 Sur 0 1023.5 -0.6 72
2019-12-03 03:00:00 9.2 6 Sudeste 16 Sur 0 1023.8 -0.6 74
2019-12-03 02:00:00 8.9 6 Sur 13 Sur 0 1023.8 -0.9 74
2019-12-03 01:00:00 9.1 8 Sur 14 Sur 0 1024.1 -0.8 75
2019-12-03 00:00:00 8.8 8 Sur 16 Sur 0 1024.4 -0.7 77
2019-12-02 23:00:00 9.2 10 Sudeste 24 Sur 0.2 1024.7 -0.4 76
2019-12-02 22:00:00 9.6 7 Sudeste 18 Este 0 1024.9 0.3 73
2019-12-02 21:00:00 9.6 10 Sur 19 Sudeste 0 1025.1 0.8 70
2019-12-02 20:00:00 10.1 8 Sudeste 25 Este 0 1025.1 1 70
2019-12-02 19:00:00 10.7 20 Este 32 Este 0 1024.6 0.9 67
2019-12-02 18:00:00 10.6 21 Este 37 Nordeste 0 1024.3 1 65
2019-12-02 17:00:00 10.8 28 Este 40 Este 0 1024.1 0.8 70
2019-12-02 16:00:00 11.1 28 Este 42 Nordeste 0 1023.7 0.2 68
2019-12-02 15:00:00 11.2 31 Este 42 Nordeste 0 1023.3 -0.3 71
2019-12-02 14:00:00 11.7 27 Nordeste 44 Este 0 1023.3 0 73
2019-12-02 13:00:00 11.7 25 Nordeste 49 Nordeste 0 1023.5 1 73
2019-12-02 12:00:00 11.9 27 Nordeste 43 Nordeste 0 1023.6 1.9 75
2019-12-02 11:00:00 11.8 28 Nordeste 49 Nordeste 0 1023.3 2.4 76
2019-12-02 10:00:00 11.9 31 Nordeste 55 Nordeste 0 1022.5 2 77
2019-12-02 09:00:00 11.5 -- -- -- -- 3 1021.7 1.9 81
2019-12-02 08:00:00 12.1 -- -- -- -- 1 1020.9 1.2 82
2019-12-02 07:00:00 9.2 5 Sudoeste 19 Oeste 10.4 1020.5 1 88
2019-12-02 06:00:00 9.1 8 Oeste 17 Oeste 3.2 1019.8 0.5 87
2019-12-02 05:00:00 9.3 7 Oeste 14 Oeste 2.6 1019.7 0.9 86
2019-12-02 04:00:00 9.2 7 Sudoeste 11 Sudoeste 2 1019.5 1.1 86
2019-12-02 03:00:00 9.3 7 Sudoeste 10 Sudoeste 0.8 1019.3 1.3 85
2019-12-02 02:00:00 9.4 7 Oeste 13 Sudoeste 0 1018.8 1.2 84
2019-12-02 01:00:00 9.7 10 Sudoeste 17 Sudoeste 0.2 1018.4 1.2 83
2019-12-02 00:00:00 10.7 6 Nordeste 24 Norte 0.2 1018 1.4 80
2019-12-01 23:00:00 10.9 5 Oeste 29 Noroeste 0 1017.6 1.6 76
2019-12-01 22:00:00 11.2 15 Noroeste -- -- 0.2 1017.2 2.1 77
2019-12-01 21:00:00 11.2 8 Noroeste 39 Noroeste 0.8 1016.6 2.3 78
2019-12-01 20:00:00 12.1 11 Norte 38 Norte 0.2 1016 2.4 73
2019-12-01 19:00:00 11.8 16 Norte -- -- 0 1015.1 1.8 78
2019-12-01 18:00:00 11.8 20 Norte 42 Nordeste 6.4 1014.3 1.3 84
2019-12-01 17:00:00 11 9 Sudoeste -- -- 1.2 1013.6 0.9 82
2019-12-01 16:00:00 11.6 17 Noroeste 41 Noroeste 0.4 1013.3 1 81
2019-12-01 15:00:00 10.7 9 Oeste 20 Sudoeste 2 1013 0.7 81
2019-12-01 14:00:00 12 11 Oeste 24 Noroeste 7.6 1012.7 1.1 78
2019-12-01 13:00:00 14.6 8 Noroeste 13 Noroeste 0 1012.3 1.6 64
2019-12-01 12:00:00 13.9 6 Oeste 16 Oeste 0 1012.3 2.8 68
2019-12-01 11:00:00 13.5 9 Oeste 19 Oeste 0 1011.6 2.8 69
2019-12-01 10:00:00 11.5 8 Oeste 22 Oeste 0 1010.7 2.8 72
2019-12-01 09:00:00 10.5 9 Sudoeste 15 Oeste 0 1009.5 2.1 73
2019-12-01 08:00:00 10 10 Sudoeste 15 Sudoeste 0 1008.8 1.3 76
2019-12-01 07:00:00 9.8 12 Sudoeste 15 Sudoeste 0 1007.9 0.2 78
2019-12-01 06:00:00 9.7 9 Sudoeste 23 Oeste 0 1007.4 -0.6 79
2019-12-01 05:00:00 9.6 5 Oeste 15 Sudoeste 0 1007.5 -0.9 79
2019-12-01 04:00:00 9 10 Sudoeste 15 Sudoeste 0 1007.7 -1.2 80
2019-12-01 03:00:00 9.3 5 Sudoeste 15 Sudoeste 0 1008 -1.6 80
2019-12-01 02:00:00 8.5 6 Sudoeste 20 Sudoeste 0 1008.4 -1.5 81
2019-12-01 01:00:00 8.8 5 Sudoeste 12 Sudoeste 0 1008.9 -1.6 81
2019-12-01 00:00:00 8.9 6 Sudoeste 14 Oeste 0 1009.6 -1.3 82
2019-11-30 23:00:00 9.2 7 Sudoeste 13 Sudoeste 0 1009.9 -1.4 82
2019-11-30 22:00:00 9.6 9 Sudoeste 17 Oeste 0 1010.5 -1.2 82
2019-11-30 21:00:00 10.4 3 Sur 9 Sudoeste 0 1010.9 -1.1 80
2019-11-30 20:00:00 11.8 5 Sudeste 12 Sudeste 0 1011.3 -0.3 79
2019-11-30 19:00:00 11.6 2 Este 14 Noroeste 0 1011.7 0.4 79
2019-11-30 18:00:00 12.7 5 Oeste 17 Oeste 0 1012 0.6 77
2019-11-30 17:00:00 13.3 5 Oeste 18 Este 0 1011.6 0.2 77
2019-11-30 16:00:00 13.8 5 Sudeste 9 Sudeste 0 1011.3 -0.9 77
2019-11-30 15:00:00 13 6 Sur 10 Sur 0 1011.4 -1.6 80
2019-11-30 14:00:00 13.1 5 Oeste 12 Oeste 0 1011.4 -1.6 82
2019-11-30 13:00:00 12.8 6 Sudoeste 21 Oeste 1.2 1012.2 -1.4 84
2019-11-30 12:00:00 12.7 4 Sudoeste 16 Oeste 1 1013 -0.3 85
2019-11-30 11:00:00 12.2 4 Sudoeste 20 Oeste 1.8 1013 0.4 84
2019-11-30 10:00:00 12.3 8 Oeste 24 Oeste 0.2 1013.6 3.4 83
2019-11-30 09:00:00 12.3 -- -- -- -- 2.6 1013.3 3.8 84
2019-11-30 08:00:00 13.3 9 Oeste -- -- 1.2 1012.6 3.2 81
2019-11-30 07:00:00 13.1 12 Sudoeste 30 Noroeste 0.2 1010.2 -0.8 82
2019-11-30 06:00:00 12 6 Oeste 17 Oeste 0 1009.5 -1.8 83
2019-11-30 05:00:00 12.1 4 Sur 19 Oeste 0 1009.4 -2.8 85
2019-11-30 04:00:00 11.2 9 Oeste 16 Sudoeste 0 1011 -2.7 85
2019-11-30 03:00:00 10.9 3 Sudoeste 14 Este 0 1011.3 -3.5 85
2019-11-30 02:00:00 10 6 Oeste 14 Sudoeste 0 1012.2 -3.6 85
2019-11-30 01:00:00 10.3 4 Sudoeste 21 Oeste 0 1013.7 -3.4 84
2019-11-30 00:00:00 10.7 12 Sudoeste 16 Sudoeste 0 1014.8 -2.6 84
2019-11-29 23:00:00 11.1 3 Sudoeste 16 Sudoeste 0 1015.8 -1.8 82
2019-11-29 22:00:00 11 9 Oeste 19 Oeste 0 1017.1 -0.7 83
2019-11-29 21:00:00 11.2 9 Oeste 17 Oeste 0 1017.4 -0.2 81
2019-11-29 20:00:00 11.9 5 Sudoeste 18 Oeste 0 1017.6 0.3 81
2019-11-29 19:00:00 12.6 5 Sudoeste 19 Oeste 0 1017.8 0.5 79
2019-11-29 18:00:00 13.8 4 Sur 15 Sudeste 0 1017.6 -0.2 76
2019-11-29 17:00:00 15 7 Sudeste 20 Este 0 1017.3 -0.8 75
2019-11-29 16:00:00 16.1 4 Este 6 Este 0 1017.3 -1.3 74
2019-11-29 15:00:00 17.8 4 Este 6 Este 0 1017.8 -1.3 67
2019-11-29 14:00:00 16.3 2 Sudeste 6 Este 0 1018.1 -0.6 73
2019-11-29 13:00:00 16 0 Calma 5 Noroeste 0 1018.6 0.6 76
2019-11-29 12:00:00 15.5 2 Noroeste 6 Noroeste 0 1019.1 1.5 80
2019-11-29 11:00:00 13.9 4 Sudoeste 8 Oeste 0 1018.7 1.6 82
2019-11-29 10:00:00 13.4 0 Calma 12 Sudoeste 0 1018 1.4 81
2019-11-29 09:00:00 12.9 7 Sudoeste 16 Oeste 0 1017.6 1.5 82
2019-11-29 08:00:00 13.3 6 Sudoeste 12 Oeste 0 1017.1 1.8 81
2019-11-29 07:00:00 13.6 5 Oeste 14 Oeste 0 1016.6 1.7 81
2019-11-29 06:00:00 13.7 8 Oeste 22 Oeste 0 1016.1 2.1 81
2019-11-29 05:00:00 13.9 12 Oeste 24 Noroeste 0 1015.3 1.9 81
2019-11-29 04:00:00 13.8 13 Oeste 23 Oeste 0 1014.9 1.7 82
2019-11-29 03:00:00 13.7 10 Oeste 24 Oeste 0 1014 1.8 84
2019-11-29 02:00:00 13.8 15 Noroeste 25 Oeste 0.2 1013.4 1.7 85
2019-11-29 01:00:00 13.8 15 Oeste 29 Oeste 0 1013.2 2.1 86
2019-11-29 00:00:00 13.6 10 Oeste 22 Oeste 0 1012.2 2.5 88
2019-11-28 23:00:00 13 8 Sudoeste 15 Oeste 1.4 1011.7 3 88
2019-11-28 22:00:00 13 5 Oeste 21 Oeste 1.2 1011.1 3.7 88
2019-11-28 21:00:00 12.9 5 Sudoeste 15 Oeste 1 1009.7 2.6 87
2019-11-28 20:00:00 12.7 10 Sudoeste 23 Sudoeste 0 1008.7 -0.3 86
2019-11-28 19:00:00 12.7 8 Oeste 19 Oeste 0 1007.4 -2.7 86
2019-11-28 18:00:00 13.1 8 Este 19 Sudeste 0.2 1007.1 -2.5 85
2019-11-28 17:00:00 12.8 9 Sudeste 18 Sudeste 1.6 1009 -1.2 85
2019-11-28 16:00:00 12.8 6 Sudeste 16 Sur 4 1010.1 0 84
2019-11-28 15:00:00 13.4 5 Norte 16 Oeste 1.2 1009.6 -1.1 82
2019-11-28 14:00:00 14.5 0 Calma 13 Sudeste 0 1010.2 -1.1 83
2019-11-28 13:00:00 14.2 7 Este 14 Sudeste 0.2 1010.1 -0.5 84
2019-11-28 12:00:00 13.7 2 Sudoeste 12 Noroeste 0 1010.7 0.5 83
2019-11-28 11:00:00 13.4 2 Sudoeste 10 Sudoeste 0 1011.3 1.6 84
2019-11-28 10:00:00 13.5 4 Noroeste 9 Noroeste 0.2 1010.6 1.6 83
2019-11-28 09:00:00 13.3 3 Oeste 15 Oeste 0 1010.2 1.8 82
2019-11-28 08:00:00 13.2 4 Sudoeste 18 Oeste 0 1009.7 1.8 82
2019-11-28 07:00:00 13.3 9 Oeste 16 Noroeste 0 1009 1.3 80
2019-11-28 06:00:00 12.6 6 Oeste 20 Oeste 0 1008.4 1 79
2019-11-28 05:00:00 12 9 Oeste 15 Sudoeste 0 1007.9 0.8 80
2019-11-28 04:00:00 11.5 7 Sudoeste 20 Oeste 0 1007.7 1 82
2019-11-28 03:00:00 11.8 8 Sudoeste 19 Oeste 0 1007.4 0.6 82
2019-11-28 02:00:00 11.4 6 Oeste 24 Oeste 0 1007.1 -0.6 83
2019-11-28 01:00:00 11.8 0 Calma 19 Sudoeste 0 1006.7 -0.6 82
2019-11-28 00:00:00 11.6 8 Sudoeste 22 Sudoeste 0.6 1006.8 -0.1 83
2019-11-27 23:00:00 11.8 5 Sudoeste 18 Oeste 0.2 1007.7 1 82
2019-11-27 22:00:00 11.8 9 Sudoeste 15 Sudoeste 0.2 1007.3 0.8 82
2019-11-27 21:00:00 12.7 3 Sudoeste 12 Sudoeste 0.4 1006.9 1 78
2019-11-27 20:00:00 13.1 6 Oeste 16 Oeste 0.4 1006.7 0.9 74
2019-11-27 19:00:00 13.6 5 Sur 16 Este 0 1006.5 1.3 70
2019-11-27 18:00:00 13.9 3 Oeste 17 Noroeste 0 1005.9 0.6 67
2019-11-27 17:00:00 14.5 7 Oeste 36 Oeste 0 1005.8 0.2 62
2019-11-27 16:00:00 14.6 9 Oeste 27 Sudoeste 0 1005.2 0.3 62
2019-11-27 15:00:00 14.1 9 Sur 21 Noroeste 0.2 1005.3 -0.1 73
2019-11-27 14:00:00 15.3 7 Sudoeste 13 Sudoeste 0 1005.6 0.3 73
2019-11-27 06:00:00 12 4 Sudoeste 11 Sudoeste 0 1002.4 1.5 66
2019-11-27 05:00:00 12.8 7 Oeste 16 Sudoeste 0 1001.8 1.5 64
2019-11-27 04:00:00 12.4 9 Oeste 18 Sur 0 1001.6 1.5 65
2019-11-27 03:00:00 11.6 5 Sur 16 Oeste 0 1000.9 1.6 75
2019-11-27 02:00:00 11.5 3 Sudeste 13 Sudoeste 0 1000.3 1.6 78
2019-11-27 01:00:00 11.1 10 Oeste 20 Sudoeste 0 1000.1 1.6 81
2019-11-27 00:00:00 12.2 9 Sur 17 Norte 0 999.3 0.9 82
2019-11-26 23:00:00 12.6 3 Noroeste 24 Oeste 0 998.7 -0.1 82
2019-11-26 22:00:00 13.4 9 Sudoeste 24 Noroeste 0 998.5 2.3 80
2019-11-26 21:00:00 13.8 10 Sudoeste -- -- 0.4 998.4 3.7 79
2019-11-26 20:00:00 13.9 -- -- -- -- 0.8 998.8 4 77
2019-11-26 19:00:00 17.2 13 Oeste -- -- 0 996.2 0.5 62
2019-11-26 18:00:00 20.3 15 Oeste 58 Oeste 0 994.7 -2.6 34
2019-11-26 17:00:00 15.9 3 Sudeste 19 Este 0 994.8 -4.2 77
2019-11-26 16:00:00 16.1 12 Este 34 Este 0 995.7 -5 75
2019-11-26 15:00:00 16.5 15 Este 27 Sudeste 0 997.3 -5.3 74
2019-11-26 14:00:00 18 12 Sudeste 27 Sudeste 0 999 -4.6 65
2019-11-26 13:00:00 17.4 13 Sudeste 23 Sudeste 0 1000.7 -3 65
2019-11-26 12:00:00 16.1 3 Sudeste 8 Sur 0 1002.6 -0.3 71
2019-11-26 11:00:00 15.2 4 Sur 13 Sudoeste 0 1003.6 0.8 68
2019-11-26 10:00:00 13.2 8 Oeste 15 Sudoeste 0 1003.7 0.8 72
2019-11-26 09:00:00 11.8 3 Oeste 22 Sudoeste 0 1002.9 -0.1 73
2019-11-26 08:00:00 11.6 3 Nordeste 18 Oeste 0 1002.8 -0.5 77
2019-11-26 07:00:00 11.3 4 Norte 15 Oeste 0 1002.9 -0.7 77
2019-11-26 06:00:00 10.7 5 Oeste 18 Oeste 0 1003 -1.3 82
2019-11-26 05:00:00 10.5 6 Sudoeste 19 Oeste 0 1003.3 -1.7 84
2019-11-26 04:00:00 10.6 4 Oeste 19 Oeste 0 1003.6 -3.1 84
2019-11-26 03:00:00 10.7 6 Sudoeste 20 Oeste 0 1004.3 -3 84
2019-11-26 02:00:00 10.4 11 Sudoeste 20 Oeste 0 1005 -3.3 85
2019-11-26 01:00:00 10.8 10 Oeste 22 Oeste 0 1006.7 -2.1 86
2019-11-26 00:00:00 10.7 12 Oeste 21 Oeste 0 1007.3 -2.6 84
2019-11-25 23:00:00 11.4 10 Sudoeste 19 Oeste 0 1008.3 -2.2 84
2019-11-25 22:00:00 12 4 Sudoeste 9 Sudoeste 0 1008.8 -1.9 81
2019-11-25 21:00:00 13 4 Sudoeste 14 Oeste 0 1009.9 -0.6 80
2019-11-25 20:00:00 14 3 Sur 16 Este 0 1010.5 0 78
2019-11-25 19:00:00 14.5 5 Sur 8 Sur 0 1010.7 0.2 77
2019-11-25 18:00:00 15 3 Sur 8 Sudoeste 0 1010.5 0.3 76
2019-11-25 17:00:00 15.4 5 Oeste 10 Oeste 0 1010.5 0.5 75
2019-11-25 16:00:00 15.5 6 Oeste 14 Oeste 0 1010.5 0.3 74
2019-11-25 15:00:00 15.6 6 Oeste 13 Oeste 0 1010.2 0 74
2019-11-25 14:00:00 16.6 2 Norte 9 Nordeste 0 1010 0.1 74
2019-11-25 13:00:00 16.8 6 Nordeste 9 Sudoeste 0 1010.2 0.9 73
2019-11-25 12:00:00 16.4 6 Sudoeste 10 Sudoeste 0 1010.2 1.5 72
2019-11-25 11:00:00 15.8 2 Nordeste 9 Sur 0 1009.9 2.4 74
2019-11-25 10:00:00 13.8 5 Noroeste 14 Sudoeste 0 1009.3 2.4 78
2019-11-25 09:00:00 12.6 9 Oeste 23 Sudoeste 0 1008.7 2.1 80
2019-11-25 08:00:00 12.7 6 Sudoeste 16 Oeste 0 1007.5 1.5 80
2019-11-25 07:00:00 12.7 2 Sudeste 12 Sudoeste 0 1006.9 0.7 80
2019-11-25 06:00:00 12.9 9 Sudoeste 17 Este 0 1006.6 2.3 82
2019-11-25 05:00:00 13.3 5 Sur 18 Oeste 0 1006 1.5 79
2019-11-25 04:00:00 12.7 13 Oeste 22 Oeste 0 1006.2 1.5 78
2019-11-25 03:00:00 11.6 4 Oeste 17 Sudoeste 0 1004.3 -0.2 78
2019-11-25 02:00:00 12.1 6 Sur 18 Oeste 0 1004.5 -0.4 76
2019-11-25 01:00:00 13 9 Sudoeste 16 Sudoeste 0 1004.7 -0.4 73
2019-11-25 00:00:00 12.9 3 Sudeste 15 Oeste 0 1004.5 -1.2 75
2019-11-24 23:00:00 12.8 9 Oeste 17 Oeste 0 1004.9 0.7 76
2019-11-24 22:00:00 12.6 10 Sudoeste 18 Oeste 0 1005.1 1.6 78
2019-11-24 21:00:00 12.4 7 Oeste 20 Oeste 0 1005.7 1.1 80
2019-11-24 20:00:00 12.2 6 Sur 14 Sudoeste 0.6 1004.2 -1.3 76
2019-11-24 19:00:00 13.2 0 Calma 20 Oeste 0 1003.5 -2.7 73
2019-11-24 18:00:00 14 6 Oeste 16 Sudoeste 0 1004.6 -2.6 71
2019-11-24 17:00:00 14.9 4 Sur -- -- 0 1005.5 -2.6 64
2019-11-24 16:00:00 15 -- -- -- -- 0 1006.2 -2.4 64
2019-11-24 15:00:00 14.9 17 Sudeste 29 Este 0 1007.2 -3.3 63
2019-11-24 14:00:00 14.7 11 Sudeste 21 Sudeste 0 1008.1 -2.7 60
2019-11-24 13:00:00 14.7 15 Este 23 Este 0 1008.6 -2.3 63
2019-11-24 12:00:00 14.6 0 Calma 12 Noroeste 0 1010.5 -0.4 58
2019-11-24 11:00:00 14.4 8 Oeste 17 Oeste 0 1010.8 0.4 49
2019-11-24 10:00:00 12.1 5 Oeste 20 Oeste 0 1010.9 1 56
2019-11-24 09:00:00 11.8 6 Oeste 24 Oeste 0 1010.9 1.1 61
2019-11-24 08:00:00 11.9 8 Oeste 28 Oeste 0 1010.4 0.7 61
2019-11-24 07:00:00 12.4 13 Oeste 48 Sudoeste 0 1009.9 0.5 59
2019-11-24 06:00:00 12.9 18 Oeste -- -- 0 1009.8 0.6 58
2019-11-24 05:00:00 12.6 18 Oeste 35 Oeste 0 1009.7 1.3 61
2019-11-24 04:00:00 12.3 14 Oeste -- -- 0 1009.4 0.7 64
2019-11-24 03:00:00 12.2 18 Oeste 43 Oeste 0 1009.2 0.8 64
2019-11-24 02:00:00 11.5 15 Oeste -- -- 0.2 1008.4 -0.1 66
2019-11-24 01:00:00 11.3 14 Oeste -- -- 0 1008.7 1.3 70
2019-11-24 00:00:00 10.7 15 Oeste -- -- 0.8 1008.4 1.3 77
2019-11-23 23:00:00 10.4 17 Oeste -- -- 1.2 1008.5 1.9 77
2019-11-23 22:00:00 11.4 18 Oeste -- -- 0.4 1007.4 1 68
2019-11-23 21:00:00 11.2 15 Oeste -- -- 0.2 1007.1 1.7 69
2019-11-23 20:00:00 10.5 13 Oeste -- -- 1.4 1006.6 2.1 77
2019-11-23 19:00:00 10.9 16 Oeste -- -- 1 1006.4 2.6 75
2019-11-23 18:00:00 10.5 14 Oeste 50 Oeste 2.2 1005.4 3 78
2019-11-23 17:00:00 10.6 -- -- -- -- 2 1004.5 2.4 79
2019-11-23 16:00:00 10.7 -- -- -- -- 1 1003.8 2.3 75
2019-11-23 15:00:00 11.9 15 Oeste 42 Oeste 0.6 1002.4 1.5 74
2019-11-23 14:00:00 11.5 -- -- -- -- 0.4 1002.1 2.9 75
2019-11-23 13:00:00 11.4 13 Oeste -- -- 0.6 1001.5 3.2 75
2019-11-23 12:00:00 12.3 15 Oeste -- -- 0.2 1000.9 4.4 68
2019-11-23 11:00:00 12.1 -- -- -- -- 0.2 999.2 4.4 67
2019-11-23 10:00:00 11.4 -- -- -- -- 0 998.3 4.9 69
2019-11-23 09:00:00 11.2 -- -- -- -- 0 996.5 5 67
2019-11-23 08:00:00 10.6 -- -- -- -- 0 994.8 5.7 72
2019-11-23 07:00:00 10.4 -- -- -- -- 2 993.4 5.8 78
2019-11-23 06:00:00 10.6 -- -- -- -- 6 991.5 5.9 83
2019-11-23 05:00:00 11.5 -- -- -- -- 1.4 989.1 6.1 82
2019-11-23 04:00:00 12 -- -- -- -- 5.2 987.6 5.1 84
2019-11-23 03:00:00 11.5 -- -- -- -- 3.6 985.6 3.5 78
2019-11-23 02:00:00 11.9 -- -- -- -- 1 983 2.2 69
2019-11-23 01:00:00 12.3 15 Oeste 32 Oeste 0.2 982.5 2 70
2019-11-23 00:00:00 12.8 11 Noroeste -- -- 0.2 982.1 2 67
2019-11-22 23:00:00 14 8 Oeste -- -- 0 980.8 0.9 58
2019-11-22 22:00:00 14.6 11 Noroeste -- -- 0 980.5 0.3 55
2019-11-22 21:00:00 12.9 6 Oeste 24 Oeste 0 980.1 -0.5 75
2019-11-22 20:00:00 12.7 8 Sudoeste 21 Sudoeste 0 979.9 -1 77
2019-11-22 19:00:00 13.7 12 Este 20 Sur 0 980.2 -0.7 76
2019-11-22 18:00:00 13.7 11 Sudeste 20 Sudeste 0 980.6 -0.5 77
2019-11-22 17:00:00 14.8 6 Sudeste 12 Noroeste 0 980.9 1.6 76
2019-11-22 16:00:00 15.1 9 Noroeste 24 Sudoeste 0.2 980.9 1.1 75
2019-11-22 15:00:00 15 12 Oeste 37 Oeste 0 981.1 -1.3 71
2019-11-22 14:00:00 15.9 8 Oeste 25 Noroeste 0 979.3 -3.8 63
2019-11-22 13:00:00 15.6 5 Noroeste -- -- 0.2 979.8 -3.8 63
2019-11-22 12:00:00 12.9 8 Sudeste 24 Sudeste 0.2 982.4 -3.2 71
2019-11-22 11:00:00 12 8 Sudoeste 22 Oeste 0 983.1 -4.7 71
2019-11-22 10:00:00 10.9 11 Sudoeste 27 Sudoeste 0 983.6 -6 71
2019-11-22 09:00:00 9.2 12 Oeste 20 Sudoeste 0.6 985.6 -6.6 73
2019-11-22 08:00:00 10.3 5 Sur 12 Sudoeste 0.2 987.8 -5.7 64
2019-11-22 07:00:00 10.2 5 Sudeste 12 Sur 0 989.6 -5.4 64
2019-11-22 06:00:00 9.4 6 Sudoeste 21 Sudoeste 0 992.2 -4.5 64
2019-11-22 05:00:00 8.9 0 Calma 11 Oeste 0 993.5 -4.2 65
2019-11-22 04:00:00 8.6 3 Sur 18 Sudoeste 0 995 -3.9 63
2019-11-22 03:00:00 8.1 6 Sudoeste 17 Sudoeste 0 996.7 -2.8 65
2019-11-22 02:00:00 9 6 Sudoeste 22 Sudoeste 0 997.7 -2.8 61
2019-11-22 01:00:00 8.5 8 Sudoeste 17 Sudoeste 0 998.9 -2.4 64
2019-11-22 00:00:00 8.5 0 Calma 15 Sudoeste 0 999.5 -2 66
2019-11-21 23:00:00 9.9 5 Sudoeste 18 Oeste 0 1000.5 -1.7 59
2019-11-21 22:00:00 8.6 12 Sudoeste 18 Sudoeste 0 1001.3 -1.2 67
2019-11-21 21:00:00 8.9 8 Oeste 14 Sudoeste 0 1001.5 -0.6 65
2019-11-21 20:00:00 9.4 10 Sudoeste 17 Sudoeste 0 1002.2 0.1 62
2019-11-21 19:00:00 9.8 11 Sudoeste 17 Sudoeste 0 1002.5 0.3 66
2019-11-21 18:00:00 11.6 5 Sur 12 Sur 0 1002.1 0 61
2019-11-21 17:00:00 12.8 6 Sur 15 Este 0 1002.1 0.2 58
2019-11-21 16:00:00 13.7 5 Sur 13 Este 0 1002.2 0 58
2019-11-21 15:00:00 16.3 5 Este 14 Este 0 1002.1 -0.4 53
2019-11-21 14:00:00 15.3 5 Nordeste 13 Nordeste 0 1001.9 -1 58
2019-11-21 13:00:00 14.7 7 Nordeste 14 Nordeste 0 1002.2 -0.5 61
2019-11-21 12:00:00 15 9 Este 12 Este 0 1002.5 0.1 66
2019-11-21 11:00:00 14 2 Noroeste 7 Sudoeste 0 1002.9 1.1 74
2019-11-21 10:00:00 10.4 5 Sudoeste 18 Sudoeste 0 1002.7 0.5 79
2019-11-21 09:00:00 8.4 9 Oeste 16 Oeste 0 1002.4 0.8 80
2019-11-21 08:00:00 9.4 10 Sudoeste 16 Oeste 0 1001.8 0.1 81
2019-11-21 07:00:00 9.4 10 Sudoeste 17 Sudoeste 0.2 1002.2 0.5 82
2019-11-21 06:00:00 9.3 3 Sudoeste 16 Sudoeste 0 1001.6 0.1 79
2019-11-21 05:00:00 8.9 12 Sudoeste 17 Oeste 0 1001.7 0.2 80
2019-11-21 04:00:00 9.2 12 Sudoeste 18 Sudoeste 0 1001.7 0.2 79
2019-11-21 03:00:00 9.4 12 Sudoeste 18 Oeste 0 1001.5 -0.2 79
2019-11-21 02:00:00 8.7 12 Sudoeste 17 Sudoeste 0 1001.5 -0.3 79
2019-11-21 01:00:00 10.1 10 Sudoeste 15 Sudoeste 0 1001.5 -0.1 76
2019-11-21 00:00:00 11.2 8 Sudoeste 20 Sudoeste 0 1001.7 0 73
2019-11-20 23:00:00 10.3 14 Sudoeste 25 Sudoeste 0 1001.8 0 73
2019-11-20 22:00:00 9.3 13 Sudoeste 18 Sudoeste 0 1001.6 0 72
2019-11-20 21:00:00 8.4 13 Sudoeste 21 Sudoeste 0 1001.7 0 74
2019-11-20 20:00:00 9.3 9 Sudoeste 19 Sudoeste 0 1001.8 -0.3 74
2019-11-20 19:00:00 10.7 4 Sur 10 Sudoeste 0 1001.6 -0.4 73
2019-11-20 18:00:00 11.7 3 Sur 10 Sudeste 0 1001.7 -0.7 74
2019-11-20 17:00:00 12.8 3 Oeste 6 Oeste 0 1002.1 -1 74
2019-11-20 16:00:00 13.1 0 Calma 9 Oeste 0 1002 -1.4 74
2019-11-20 15:00:00 12.6 6 Oeste 9 Oeste 0 1002.4 -1.8 74
2019-11-20 14:00:00 12.4 3 Oeste 15 Oeste 0 1003.1 -1.4 75
2019-11-20 13:00:00 12 2 Sur 20 Oeste 0 1003.4 -1.4 74
2019-11-20 12:00:00 11.4 8 Sudoeste 20 Oeste 0 1004.2 -0.8 74
2019-11-20 11:00:00 10.5 7 Sudoeste 14 Sudoeste 0 1004.5 -0.3 72
2019-11-20 10:00:00 9.7 5 Sudoeste 13 Sudoeste 0 1004.8 -0.9 73
2019-11-20 09:00:00 9.3 4 Sudoeste 15 Sudoeste 0 1005 -0.8 74
2019-11-20 08:00:00 9.7 5 Sudoeste 14 Sudoeste 0 1004.8 -1.6 69
2019-11-20 07:00:00 9.4 12 Sudoeste 18 Sudoeste 0 1005.7 -1.4 65
2019-11-20 06:00:00 9.1 4 Oeste 15 Oeste 0 1005.8 -1.6 65
2019-11-20 05:00:00 9.2 10 Sudoeste 14 Sudoeste 0 1006.4 -1.6 64
2019-11-20 04:00:00 8.9 10 Oeste 16 Sudoeste 0 1007.1 -1.7 68
2019-11-20 03:00:00 9.5 2 Oeste 8 Sudoeste 0 1007.4 -2.1 65
2019-11-20 02:00:00 9.5 2 Sur 13 Sudoeste 0 1008 -1.9 65
2019-11-20 01:00:00 9.1 8 Oeste 13 Sudoeste 0 1008.8 -1.7 66
2019-11-20 00:00:00 9 4 Oeste 15 Oeste 0 1009.5 -1.3 70
2019-11-19 23:00:00 8.8 3 Sur 6 Sudoeste 0 1009.9 -0.9 70
2019-11-19 22:00:00 8.9 2 Sudoeste 12 Sudoeste 0 1010.5 -0.3 69
2019-11-19 21:00:00 8.9 10 Oeste 18 Sudoeste 0 1010.8 -0.1 69
2019-11-19 20:00:00 8 11 Sudoeste 14 Sudoeste 0 1010.8 -0.2 77
2019-11-19 19:00:00 9.1 6 Sudoeste 12 Sudoeste 0 1010.8 -0.6 76
2019-11-19 18:00:00 10.7 9 Sudoeste 14 Oeste 0 1010.9 -1 73
2019-11-19 17:00:00 12 3 Sudeste 5 Sudeste 0 1011 -1.4 65
2019-11-19 16:00:00 12.6 3 Noroeste 16 Noroeste 0 1011.4 -1.8 62
2019-11-19 15:00:00 13.4 4 Noroeste 17 Nordeste 0 1011.9 -2.2 59
2019-11-19 14:00:00 13.3 0 Calma 8 Noroeste 0 1012.4 -2.2 58
2019-11-19 13:00:00 13.2 3 Norte 8 Oeste 0 1013.2 -1.7 64
2019-11-19 12:00:00 11.1 5 Oeste 19 Oeste 0 1014.1 -1 71
2019-11-19 11:00:00 8.9 8 Sudoeste 17 Sudoeste 0 1014.6 -0.7 77
2019-11-19 10:00:00 7.7 10 Oeste 15 Sudoeste 0 1014.9 -0.6 78
2019-11-19 09:00:00 7 3 Sudoeste 7 Sudoeste 0 1015.1 -0.4 80
2019-11-19 08:00:00 6.7 2 Sur 14 Sudoeste 0 1015.3 -0.7 79
2019-11-19 07:00:00 7 12 Sudoeste 17 Oeste 0 1015.5 -0.8 77
2019-11-19 06:00:00 6.1 10 Oeste 16 Sudoeste 0 1015.5 -0.7 79
2019-11-19 05:00:00 6.9 13 Sudoeste 18 Sudoeste 0 1016 -0.7 76
2019-11-19 04:00:00 6.8 11 Sudoeste 16 Oeste 0 1016.3 -1 78
2019-11-19 03:00:00 7.7 5 Sudoeste 9 Sudoeste 0 1016.2 -1.3 76
2019-11-19 02:00:00 8.6 6 Sudoeste 11 Sudoeste 0 1016.7 -1.4 75
2019-11-19 01:00:00 9.5 8 Sudoeste 12 Sudoeste 0 1017.3 -0.9 72
2019-11-19 00:00:00 9.9 8 Sudoeste 12 Sudoeste 0 1017.5 -0.5 71
2019-11-18 23:00:00 9.7 5 Sudoeste 11 Oeste 0 1018.1 0.2 73
2019-11-18 22:00:00 9.4 5 Sudoeste 12 Oeste 0 1018.2 0.6 73
2019-11-18 21:00:00 9.4 6 Oeste 15 Sudoeste 0 1018 0.7 74
2019-11-18 20:00:00 9.4 5 Oeste 14 Oeste 0 1017.9 0.6 73
2019-11-18 19:00:00 9.9 9 Oeste 15 Oeste 0 1017.6 0.8 71
2019-11-18 18:00:00 10.3 8 Oeste 22 Oeste 0 1017.3 0.6 70
2019-11-18 17:00:00 10.8 8 Oeste 24 Oeste 0 1017.3 0.3 68
2019-11-18 16:00:00 11.2 9 Oeste 19 Oeste 0 1016.8 -0.3 69
2019-11-18 15:00:00 11.9 6 Oeste 19 Oeste 0 1016.7 -0.5 72
2019-11-18 14:00:00 11.6 9 Oeste 22 Oeste 0.2 1017 -0.3 75
2019-11-18 13:00:00 12 9 Noroeste 18 Noroeste 0 1017.1 0.3 69
2019-11-18 12:00:00 11.4 9 Oeste 25 Oeste 0 1017.2 1.3 76
2019-11-18 11:00:00 10.5 8 Oeste 23 Oeste 0.2 1017.3 1.9 82
2019-11-18 10:00:00 9.6 9 Oeste 17 Oeste 0.2 1016.8 1.7 84
2019-11-18 09:00:00 9 8 Sudoeste 16 Sudoeste 0.2 1015.9 1.8 84
2019-11-18 08:00:00 9.1 10 Oeste 17 Oeste 0.4 1015.4 1.7 84
2019-11-18 07:00:00 9.5 9 Sudoeste 46 Noroeste 3.8 1015.1 2 84
2019-11-18 06:00:00 9.6 8 Sudoeste 16 Oeste 0 1014.1 1.1 83
2019-11-18 05:00:00 9.6 8 Oeste 19 Oeste 0.2 1013.7 0.9 82
2019-11-18 04:00:00 9.5 9 Oeste 21 Oeste 0 1013.1 0.6 82
2019-11-18 03:00:00 9.7 7 Oeste 16 Sudoeste 0 1013 1.4 84
2019-11-18 02:00:00 9.5 6 Oeste 19 Oeste 1.8 1012.8 0.8 85
2019-11-18 01:00:00 9.4 10 Sudoeste 37 Norte 4.8 1012.5 1.3 84
2019-11-18 00:00:00 9.5 8 Oeste 17 Sudoeste 0.2 1011.6 1.1 84
2019-11-17 23:00:00 9.7 13 Oeste -- -- 5 1012 2.1 83
2019-11-17 22:00:00 9.5 11 Oeste 26 Oeste 0.6 1011.2 1.7 80
2019-11-17 21:00:00 9.3 12 Noroeste 30 Oeste 1.8 1010.5 2 80
2019-11-17 20:00:00 9.2 6 Noroeste 35 Noroeste 2.2 1009.9 2 80
2019-11-17 19:00:00 9.5 -- -- -- -- 6 1009.5 2.2 79
2019-11-17 18:00:00 10.1 17 Oeste -- -- 1.6 1008.5 1.3 75
2019-11-17 17:00:00 11.3 -- -- -- -- 0.2 1007.9 0.1 70
2019-11-17 16:00:00 13 -- -- -- -- 0 1007.3 -1 58
2019-11-17 15:00:00 13.6 -- -- -- -- 0 1007.2 -1 57
2019-11-17 14:00:00 13.3 -- -- -- -- 0 1007.8 -0.4 60
2019-11-17 13:00:00 12.6 -- -- -- -- 0 1008.3 -0.3 69
2019-11-17 12:00:00 14 -- -- -- -- 0 1008.2 0.2 61
2019-11-17 11:00:00 12.3 18 Oeste -- -- 0 1008.2 -0.2 77
2019-11-17 10:00:00 12 -- -- -- -- 0.2 1008.6 0.8 80
2019-11-17 09:00:00 11.8 14 Oeste 33 Noroeste 0 1008 0 83
2019-11-17 08:00:00 11.2 5 Oeste 20 Oeste 2.4 1008.4 -0.5 81
2019-11-17 07:00:00 12 5 Oeste 11 Oeste 0.8 1007.8 -2.1 73
2019-11-17 06:00:00 11.8 3 Sur 6 Sur 0 1008 -2.1 71
2019-11-17 05:00:00 11.6 4 Sudoeste 13 Oeste 0 1008.9 -1.7 69
2019-11-17 04:00:00 12 9 Oeste 20 Oeste 0 1009.9 -1.6 66
2019-11-17 03:00:00 12.3 9 Oeste 30 Oeste 0 1010.1 -1.5 64
2019-11-17 02:00:00 12.1 14 Oeste 35 Oeste 0 1010.6 -1.5 65
2019-11-17 01:00:00 11.9 14 Oeste 33 Oeste 0 1011.5 -1 63
2019-11-17 00:00:00 11.8 12 Oeste 32 Oeste 0 1011.6 -1.2 59
2019-11-16 23:00:00 11.3 11 Oeste 24 Oeste 0 1012.1 -0.6 58
2019-11-16 22:00:00 10.9 11 Oeste 27 Oeste 0 1012.5 -0.5 59
2019-11-16 21:00:00 10.7 15 Oeste 32 Oeste 0 1012.8 -0.2 59
2019-11-16 20:00:00 10.2 13 Oeste 34 Noroeste 0 1012.7 0 62
2019-11-16 19:00:00 10 17 Oeste 34 Oeste 0.2 1013 0.5 65
2019-11-16 18:00:00 10.7 14 Oeste -- -- 0 1013 0.8 59
2019-11-16 17:00:00 11.1 -- -- -- -- 0 1012.7 0.4 58
2019-11-16 16:00:00 11.1 23 Oeste 60 Sudoeste 0 1012.5 0.2 61
2019-11-16 15:00:00 10.1 17 Oeste -- -- 1 1012.2 0 72
2019-11-16 14:00:00 10.3 19 Oeste -- -- 0.2 1012.3 -0.1 73
2019-11-16 13:00:00 10.7 -- -- -- -- 0.4 1012.3 0.5 68
2019-11-16 12:00:00 11 17 Oeste -- -- 0.2 1012.2 0.9 68
2019-11-16 11:00:00 10.3 21 Oeste -- -- 0.2 1012.4 1.3 70
2019-11-16 10:00:00 9.9 14 Oeste 52 Oeste 0 1011.8 1.4 71
2019-11-16 09:00:00 9.4 17 Oeste 44 Oeste 0.4 1011.3 1.3 72
2019-11-16 08:00:00 9.2 19 Oeste 43 Oeste 0 1011.1 1 71
2019-11-16 07:00:00 9.2 17 Oeste 44 Oeste 0 1010.4 0 68
2019-11-16 06:00:00 9.1 13 Oeste 36 Oeste 0.2 1010 -0.3 71
2019-11-16 05:00:00 8.2 9 Oeste 28 Oeste 0 1010.1 0.3 77
2019-11-16 04:00:00 8.3 12 Oeste 25 Oeste 0.2 1010.4 1.3 77
2019-11-16 03:00:00 8.5 13 Oeste 35 Sudoeste 0 1010.3 1.5 76
2019-11-16 02:00:00 8 12 Oeste 27 Oeste 0.2 1009.8 1.3 75
2019-11-16 01:00:00 7.5 9 Oeste 28 Oeste 0 1009.1 1.1 77
2019-11-16 00:00:00 7.3 11 Oeste 35 Sudoeste 0 1008.8 1.3 77